Lac La Biche, Alberta

Conditions des dernières 24 heures

Date / Heure
(HAR)
Conditions Temp
(°C)
Humidité
(%)
Point de rosée
(°C)
Vent
(km/h)
Pression
(kPa)
Vis
(km)
Refr. éolien
22 octobre 2014
16:00 N.D. 15 32 -1 SSE 18 100,5 N.D. *
15:00 N.D. 16   32 -1 SE 20 100,4 N.D. *
14:00 N.D. 16   35 0 SE 17 100,5 N.D. *
13:00 N.D. 15 41 2 SE 17 100,6 N.D. *
12:00 N.D. 13 47 2 SSE 16 100,7 N.D. *
11:00 N.D. 10 62 3 SSE 11 100,7 N.D. *
10:00 N.D. 5 87 3 SSE 5 100,7 N.D. *
9:00 N.D. 1 100 1 SSO 7 100,8 N.D. *
8:00 N.D. 0 100 0 SSO 4 100,8 N.D. -1
7:00 N.D. 0 100 0 S 4 100,8 N.D. -1
6:00 N.D. 0 100 0 S 6 100,8 N.D. *
5:00 N.D. 1 100 0 S 6 100,8 N.D. *
4:00 N.D. -2   99 -2 SSO 4 100,8 N.D. -3
3:00 N.D. 1 99 1 S 4 100,8 N.D. *
2:00 N.D. 1 98 1 S 5 100,8 N.D. *
1:00 N.D. 1 98 1 SSO 3 100,7 N.D. *
0:00 N.D. 2 97 1 O 3 100,7 N.D. *
21 octobre 2014
23:00 N.D. 3 94 3 SSE 5 100,7 N.D. *
22:00 N.D. 5 85 2 SSO 3 100,6 N.D. *
21:00 N.D. 6 78 3 O 3 100,6 N.D. *
20:00 N.D. 8 77 4 OSO 6 100,6 N.D. *
19:00 N.D. 8 74 4 SSO 3 100,6 N.D. *
18:00 N.D. 12 60 4 SSE 2 100,5 N.D. *
17:00 N.D. 12 58 4 SO 5 100,4 N.D. *
16:00 N.D. 13 53 4 O 6 100,4 N.D. *
N.D. non disponible
↑ température la plus haute
↓ température la plus basse
* Valeur non significative.

Si vous désirez plus de données historiques sur les conditions météo, s.v.p. visitez Données climatologiques en ligne.

Date de modification :